Fultonville, NY (12016)

5:13 AM EDT on September 05, 2015 (GMT -0400)
Old Trail Road | | Change Station
CLOSE
Current Station
Personal Weather Station
Location: Fonda, NY
Elevation: 620 ft
Nearby Weather Stations

Elev 620 ft 42.97 °N, 74.37 °W | Updated 8 minutes ago

Partly Cloudy
Partly Cloudy
59.5 °F
Feels Like 59.5 °F
N
4.0
Wind Variable Wind from NNE
Gusts 5.0 mph

Today
High -- | Low -- °F
--% Chance of Precip.
Yesterday
High -- | Low -- °F
Precip. -- in
6:26 AM 7:25 PM
Waning Gibbous, 50% visible
Pressure 30.24 in
Visibility 10.0 miles
Clouds Few 4100 ft
Dew Point 58 °F
Humidity 94%
Rainfall 0.00 in
Snow Depth Not available.
UV 0 out of 12
Pollen 8.80 out of 12
Air Quality Not available.
Flu Activity Not available.
METAR KALB 050851Z 00000KT 10SM FEW041 17/13 A3024 RMK AO2 SLP238 T01670133 53004
Pressure 30.24 in
Visibility 10.0 miles
Clouds Few 4100 ft
Dew Point 58 °F
Humidity 94%
Rainfall 0.00 in
Snow Depth Not available.
UV 0 out of 12
Pollen 8.80 out of 12
Air Quality Not available.
Flu Activity Not available.
METAR KALB 050851Z 00000KT 10SM FEW041 17/13 A3024 RMK AO2 SLP238 T01670133 53004

10-Day Weather Forecast

×

Almanac

Astronomy

Sep. 05, 2015 Rise Set
Actual Time
Civil Twilight
Nautical Twilight
Astronomical Twilight
Moon
Length of Visible Light
Length of Day
Tomorrow will be .
, % of the Moon is Illuminated

Today's Extremes

State Highs State Lows

Community

WunderPhotos

Upload Photos

1,852,440 photos uploaded!

WunderBlogs® & News

Nearby

Air Quality

  Air Quality AQ Index Pollutant
Not available.

Snow Depth

Station Depth Elevation

Earthquake Activity

City Distance Mag. Time & Date
Minimum magnitude displayed is 2.5.

Coastal Water Temperatures

Place Temperature

Stations

Nearby Weather Stations

Station Location Temp. Windchill Dew Point Humidity Wind Precip. Elev Updated Type